Time;durP1;ratioP1;P1;durP2;ratioP2;P2;SDS_P1;SDS_P2;PMS_P1;PMS_P2;Temp;Humidity;BMP_temperature;BMP_pressure;BME280_temperature;BME280_humidity;BME280_pressure;Samples;Min_cycle;Max_cycle;Signal;HPM_P1;HPM_P2
2022/10/14 00:01:07;;;;;;;;;14.25;9.50;;;;;21.49;56.95;100649.03;5081175;28;45177;-42
2022/10/14 00:03:33;;;;;;;;;12.75;10.25;;;;;21.50;56.56;100649.91;5081393;28;46438;-42
2022/10/14 00:05:58;;;;;;;;;10.25;10.25;;;;;21.48;56.76;100657.94;5081289;28;45311;-44
2022/10/14 00:08:24;;;;;;;;;11.50;10.75;;;;;21.48;56.67;100652.63;5081184;28;46426;-43
2022/10/14 00:10:49;;;;;;;;;13.00;11.75;;;;;21.50;56.56;100650.78;5073187;28;45425;-42
2022/10/14 00:13:14;;;;;;;;;10.75;9.75;;;;;21.49;56.78;100654.34;5052204;28;48796;-43
2022/10/14 00:15:40;;;;;;;;;12.00;10.25;;;;;21.51;56.28;100647.19;5059911;28;64790;-42
2022/10/14 00:18:06;;;;;;;;;10.25;9.00;;;;;21.50;56.29;100649.91;5071433;28;73017;-44
2022/10/14 00:20:32;;;;;;;;;9.50;9.50;;;;;21.51;56.52;100646.31;5066965;28;45326;-45
2022/10/14 00:22:57;;;;;;;;;9.00;9.00;;;;;21.52;56.73;100648.06;5063109;28;45475;-45
2022/10/14 00:25:25;;;;;;;;;10.00;10.00;;;;;21.51;56.52;100644.53;5079566;28;45590;-42
2022/10/14 00:27:50;;;;;;;;;11.25;8.50;;;;;21.50;56.88;100629.53;5079556;28;48217;-42
2022/10/14 00:30:15;;;;;;;;;12.00;10.25;;;;;21.53;56.28;100633.84;5079529;28;45267;-45
2022/10/14 00:32:41;;;;;;;;;10.50;10.50;;;;;21.51;56.74;100628.59;5079927;28;61754;-43
2022/10/14 00:35:06;;;;;;;;;11.75;11.75;;;;;21.52;56.26;100627.66;5078414;28;66367;-42
2022/10/14 00:37:32;;;;;;;;;11.75;9.00;;;;;21.52;56.26;100618.84;5080845;28;45395;-42
2022/10/14 00:39:57;;;;;;;;;9.50;9.50;;;;;21.53;56.28;100617.91;5079976;28;64482;-44
2022/10/14 00:42:22;;;;;;;;;12.25;10.50;;;;;21.52;56.63;100608.22;5078633;28;67776;-42
2022/10/14 00:44:48;;;;;;;;;11.00;8.25;;;;;21.53;56.05;100612.59;5078850;28;58343;-42
2022/10/14 00:47:13;;;;;;;;;12.25;11.50;;;;;21.53;56.06;100612.59;5080325;28;46091;-46
2022/10/14 00:49:41;;;;;;;;;12.00;11.00;;;;;21.52;56.18;100613.53;5079717;28;68981;-45
2022/10/14 00:52:10;;;;;;;;;11.00;9.25;;;;;21.52;56.40;100616.19;5079543;28;45340;-48
2022/10/14 00:54:48;;;;;;;;;8.25;8.25;;;;;21.52;56.41;100613.53;5062559;28;45255;-45
2022/10/14 00:57:14;;;;;;;;;9.50;9.50;;;;;21.52;56.38;100603.78;5080316;28;47314;-49
2022/10/14 00:59:39;;;;;;;;;12.50;11.50;;;;;21.52;56.28;100610.88;5079255;28;45743;-47
2022/10/14 01:02:05;;;;;;;;;11.00;10.00;;;;;21.53;56.37;100596.66;5061348;28;61177;-49
2022/10/14 01:04:30;;;;;;;;;8.50;7.50;;;;;21.53;56.49;100596.66;5080137;28;55399;-48
2022/10/14 01:07:31;;;;;;;;;11.50;7.75;;;;;21.51;56.05;100603.84;5061515;28;63462;-47
2022/10/14 01:10:11;;;;;;;;;9.25;9.25;;;;;21.53;57.01;100599.31;5012944;28;45666;-46
2022/10/14 01:13:24;;;;;;;;;9.50;9.00;;;;;21.55;56.32;100590.41;5056921;27;45387;-47
2022/10/14 01:15:58;;;;;;;;;9.50;9.50;;;;;21.58;56.41;100594.72;4981159;28;45660;-46
2022/10/14 01:18:48;;;;;;;;;12.50;10.25;;;;;21.58;56.55;100584.97;5069756;28;46293;-45
2022/10/14 01:21:26;;;;;;;;;11.75;9.50;;;;;21.57;55.96;100591.19;5074196;28;45387;-46
2022/10/14 01:24:12;;;;;;;;;10.75;10.00;;;;;21.58;56.63;100581.44;5079035;28;45383;-43
2022/10/14 01:26:52;;;;;;;;;11.25;8.50;;;;;21.57;56.65;100572.59;5069047;28;45769;-44
2022/10/14 01:29:21;;;;;;;;;10.25;10.00;;;;;21.57;55.98;100569.94;5080033;28;46178;-46
2022/10/14 01:31:48;;;;;;;;;13.50;10.00;;;;;21.57;56.23;100566.44;5061397;28;45303;-43
2022/10/14 01:34:15;;;;;;;;;10.75;8.00;;;;;21.56;56.22;100568.22;5066155;28;45337;-44
2022/10/14 01:36:46;;;;;;;;;10.25;9.25;;;;;21.57;55.98;100571.75;5078183;28;45393;-44
2022/10/14 01:39:23;;;;;;;;;11.75;8.50;;;;;21.57;56.57;100572.59;5061327;28;45385;-46
2022/10/14 01:42:04;;;;;;;;;10.25;8.75;;;;;21.57;56.14;100574.41;5058515;28;45280;-45
2022/10/14 01:44:29;;;;;;;;;8.50;8.50;;;;;21.56;55.94;100568.22;5072213;28;45271;-44
2022/10/14 01:46:55;;;;;;;;;10.25;6.75;;;;;21.56;56.05;100568.22;5057509;28;73251;-43
2022/10/14 01:49:44;;;;;;;;;8.75;7.50;;;;;21.58;55.86;100557.53;5061282;28;45241;-43
2022/10/14 01:52:15;;;;;;;;;8.00;7.25;;;;;21.57;56.51;100551.34;5049448;28;45347;-45
2022/10/14 01:54:42;;;;;;;;;9.25;5.50;;;;;21.58;55.89;100554.88;5053021;28;45651;-45
2022/10/14 01:57:10;;;;;;;;;8.00;7.00;;;;;21.57;56.28;100554.00;5080921;28;49695;-45
2022/10/14 01:59:35;;;;;;;;;9.50;8.00;;;;;21.59;56.03;100553.94;5069860;28;45380;-44
2022/10/14 02:02:00;;;;;;;;;8.00;7.00;;;;;21.58;55.76;100552.22;5066862;28;45462;-48
2022/10/14 02:04:26;;;;;;;;;7.75;6.50;;;;;21.58;55.76;100553.09;5061783;28;45497;-44
2022/10/14 02:07:03;;;;;;;;;6.75;6.75;;;;;21.59;55.46;100553.94;5060626;28;69655;-45
2022/10/14 02:09:41;;;;;;;;;7.50;6.00;;;;;21.60;55.98;100555.69;5070897;28;46319;-46
2022/10/14 02:12:10;;;;;;;;;7.50;7.00;;;;;21.60;55.50;100547.72;5047412;28;45279;-43
2022/10/14 02:15:01;;;;;;;;;7.25;7.25;;;;;21.59;55.81;100544.19;5074516;28;45333;-43
2022/10/14 02:18:00;;;;;;;;;9.50;7.50;;;;;21.60;55.53;100539.75;5060986;28;45459;-44
2022/10/14 02:20:53;;;;;;;;;7.00;6.50;;;;;21.61;55.61;100536.16;5062113;28;45424;-45
2022/10/14 02:23:21;;;;;;;;;8.00;7.50;;;;;21.61;56.01;100536.16;5082818;28;45280;-44
2022/10/14 02:25:46;;;;;;;;;8.75;6.50;;;;;21.60;55.49;100540.59;5083128;28;45305;-47
2022/10/14 02:28:14;;;;;;;;;8.00;8.00;;;;;21.61;55.78;100525.53;5080430;28;73107;-44
2022/10/14 02:30:41;;;;;;;;;7.00;5.50;;;;;21.62;55.45;100529.91;5081624;28;45358;-47
2022/10/14 02:33:07;;;;;;;;;10.00;6.50;;;;;21.62;55.36;100536.09;5064275;28;45398;-46
2022/10/14 02:35:32;;;;;;;;;8.75;6.00;;;;;21.63;55.55;100540.50;5081449;28;46726;-47
2022/10/14 02:37:57;;;;;;;;;8.25;7.00;;;;;21.63;55.51;100532.53;5064583;28;45182;-48
2022/10/14 02:40:28;;;;;;;;;9.50;8.00;;;;;21.62;55.28;100525.47;5081467;28;45187;-46
2022/10/14 02:42:53;;;;;;;;;8.50;6.75;;;;;21.63;55.50;100536.94;5081018;28;49748;-45
2022/10/14 02:45:19;;;;;;;;;7.75;7.75;;;;;21.62;55.41;100538.75;5080795;28;62047;-47
2022/10/14 02:47:44;;;;;;;;;9.00;7.00;;;;;21.63;55.65;100531.63;5080248;28;65808;-44
2022/10/14 02:50:10;;;;;;;;;7.00;7.00;;;;;21.61;55.65;100523.75;5082376;28;46223;-46
2022/10/14 02:52:35;;;;;;;;;5.00;5.00;;;;;21.62;55.60;100522.81;5081715;28;45235;-46
2022/10/14 02:55:01;;;;;;;;;8.50;8.50;;;;;21.64;55.72;100520.13;5082622;28;45269;-44
2022/10/14 02:57:26;;;;;;;;;10.00;6.25;;;;;21.62;55.13;100514.84;5081545;28;67437;-45
2022/10/14 02:59:51;;;;;;;;;7.25;7.25;;;;;21.63;54.97;100526.31;5080446;27;62487;-46
2022/10/14 03:02:17;;;;;;;;;6.50;6.50;;;;;21.64;55.44;100522.78;5081031;28;70204;-48
2022/10/14 03:04:42;;;;;;;;;7.25;6.00;;;;;21.63;55.43;100527.22;5081631;28;63548;-46
2022/10/14 03:07:07;;;;;;;;;8.75;7.75;;;;;21.63;55.05;100529.88;5081529;28;59127;-46
2022/10/14 03:09:33;;;;;;;;;6.00;6.00;;;;;21.64;55.36;100531.59;5081438;28;65521;-47
2022/10/14 03:11:58;;;;;;;;;8.00;7.00;;;;;21.65;55.21;100527.16;5063972;28;70938;-48
2022/10/14 03:14:24;;;;;;;;;6.50;6.00;;;;;21.64;55.28;100530.75;5061175;28;63147;-44
2022/10/14 03:16:49;;;;;;;;;5.00;5.00;;;;;21.63;55.37;100524.56;5059926;28;45297;-43
2022/10/14 03:19:14;;;;;;;;;5.00;5.00;;;;;21.64;55.12;100525.44;5061208;28;59956;-48
2022/10/14 03:21:40;;;;;;;;;8.00;8.00;;;;;21.63;55.10;100527.22;5077582;28;45331;-44
2022/10/14 03:24:05;;;;;;;;;7.00;5.50;;;;;21.63;55.11;100524.56;5081552;28;55564;-45
2022/10/14 03:26:31;;;;;;;;;5.75;5.25;;;;;21.63;55.02;100527.22;5081866;28;45309;-48
2022/10/14 03:28:56;;;;;;;;;5.25;5.00;;;;;21.64;55.26;100525.44;5081363;28;62870;-43
2022/10/14 03:31:22;;;;;;;;;6.75;6.75;;;;;21.63;55.37;100529.88;5080875;28;60360;-44
2022/10/14 03:33:47;;;;;;;;;8.00;6.75;;;;;21.64;55.43;100522.78;5081078;28;62740;-45
2022/10/14 03:36:12;;;;;;;;;8.00;7.25;;;;;21.64;55.39;100520.13;5080841;28;67039;-44
2022/10/14 03:38:38;;;;;;;;;9.25;6.50;;;;;21.63;55.04;100519.25;5081782;28;45908;-47
2022/10/14 03:41:03;;;;;;;;;8.00;5.75;;;;;21.64;55.26;100512.16;5079756;28;60249;-44
2022/10/14 03:43:29;;;;;;;;;7.00;6.00;;;;;21.64;55.56;100512.16;5081882;28;45315;-44
2022/10/14 03:45:54;;;;;;;;;6.25;6.25;;;;;21.64;55.17;100509.50;5080237;28;45342;-44
2022/10/14 03:48:19;;;;;;;;;7.00;5.25;;;;;21.63;54.92;100505.97;5062852;28;47815;-45
2022/10/14 03:50:48;;;;;;;;;5.50;5.50;;;;;21.63;55.44;100500.66;5078522;28;45303;-47
2022/10/14 03:53:13;;;;;;;;;6.00;6.00;;;;;21.64;54.97;100513.00;5061509;28;45292;-45
2022/10/14 03:55:39;;;;;;;;;6.00;6.00;;;;;21.65;55.11;100505.91;5073341;28;45201;-49
2022/10/14 03:58:04;;;;;;;;;5.75;4.75;;;;;21.65;55.12;100505.91;5067847;28;63952;-52
2022/10/14 04:00:30;;;;;;;;;5.00;5.00;;;;;21.65;55.01;100498.81;5078186;28;45330;-49
2022/10/14 04:02:55;;;;;;;;;5.75;5.25;;;;;21.66;54.86;100515.59;5059772;28;45288;-49
2022/10/14 04:05:21;;;;;;;;;8.00;6.25;;;;;21.66;55.42;100512.94;5060410;28;56157;-50
2022/10/14 04:07:46;;;;;;;;;7.00;5.25;;;;;21.66;54.97;100518.25;5060352;28;67340;-47
2022/10/14 04:10:11;;;;;;;;;6.25;5.00;;;;;21.65;55.41;100513.88;5067261;28;50184;-48
2022/10/14 04:12:39;;;;;;;;;7.00;6.00;;;;;21.65;55.42;100514.75;5060911;28;46140;-46
2022/10/14 04:15:07;;;;;;;;;5.00;5.00;;;;;21.66;54.82;100513.81;5059284;28;45599;-47
2022/10/14 04:17:33;;;;;;;;;4.25;4.25;;;;;21.67;54.64;100519.97;5060385;28;45277;-48
2022/10/14 04:19:58;;;;;;;;;4.75;4.75;;;;;21.66;54.64;100518.25;5061206;28;68287;-46
2022/10/14 04:22:23;;;;;;;;;6.75;5.25;;;;;21.66;55.15;100521.78;5081384;28;45318;-49
2022/10/14 04:24:49;;;;;;;;;6.00;6.00;;;;;21.66;55.11;100503.19;5079634;28;45379;-50
2022/10/14 04:27:15;;;;;;;;;5.25;4.75;;;;;21.66;54.86;100507.63;5079793;28;45369;-47
2022/10/14 04:29:40;;;;;;;;;6.00;6.00;;;;;21.66;54.60;100508.50;5080751;28;46471;-47
2022/10/14 04:32:06;;;;;;;;;6.00;6.00;;;;;21.66;55.35;100495.22;5079907;28;64531;-44
2022/10/14 04:34:31;;;;;;;;;4.75;4.00;;;;;21.67;54.56;100498.75;5080116;28;60973;-46
2022/10/14 04:36:56;;;;;;;;;4.25;4.25;;;;;21.67;55.10;100502.25;5079785;28;45327;-46
2022/10/14 04:39:22;;;;;;;;;4.75;4.50;;;;;21.68;54.59;100501.31;5062036;28;54705;-45
2022/10/14 04:41:47;;;;;;;;;5.50;5.50;;;;;21.67;55.11;100518.19;5080221;28;68781;-46
2022/10/14 04:44:13;;;;;;;;;8.00;8.00;;;;;21.68;55.09;100508.44;5079424;28;45452;-44
2022/10/14 04:46:38;;;;;;;;;6.25;5.50;;;;;21.68;54.96;100521.72;5080564;28;45326;-47
2022/10/14 04:49:03;;;;;;;;;10.00;4.25;;;;;21.68;54.95;100508.44;5080587;28;45382;-49
2022/10/14 04:51:29;;;;;;;;;5.50;5.50;;;;;21.69;54.90;100492.44;5080509;28;48258;-48
2022/10/14 04:53:56;;;;;;;;;6.00;5.00;;;;;21.68;55.04;100485.38;5079840;28;65868;-47
2022/10/14 04:56:21;;;;;;;;;5.50;4.25;;;;;21.68;54.57;100488.03;5079373;28;45219;-46
2022/10/14 04:58:46;;;;;;;;;6.00;6.00;;;;;21.69;54.94;100487.13;5079193;28;45265;-44
2022/10/14 05:01:12;;;;;;;;;5.00;5.00;;;;;21.69;54.89;100486.25;5070389;28;45491;-46
2022/10/14 05:03:37;;;;;;;;;4.25;4.25;;;;;21.67;54.58;100486.31;5063612;28;64660;-44
2022/10/14 05:06:03;;;;;;;;;5.25;5.00;;;;;21.68;54.85;100492.50;5059654;28;57208;-43
2022/10/14 05:08:28;;;;;;;;;5.00;5.00;;;;;21.68;54.85;100480.06;5059353;28;65762;-46
2022/10/14 05:10:53;;;;;;;;;5.00;3.50;;;;;21.68;54.84;100489.84;5064828;28;64154;-46
2022/10/14 05:13:19;;;;;;;;;4.50;4.00;;;;;21.68;54.92;100490.69;5059551;28;59362;-48
2022/10/14 05:15:44;;;;;;;;;5.25;5.25;;;;;21.69;54.48;100494.22;5059884;28;45202;-44
2022/10/14 05:18:10;;;;;;;;;6.50;5.00;;;;;21.70;54.69;100494.16;5067730;27;63143;-46
2022/10/14 05:20:37;;;;;;;;;5.75;5.00;;;;;21.71;54.64;100495.00;5068844;28;45402;-44
2022/10/14 05:23:03;;;;;;;;;3.00;3.00;;;;;21.72;54.35;100494.13;5061637;28;45241;-48
2022/10/14 05:25:28;;;;;;;;;4.50;3.75;;;;;21.74;54.58;100489.59;5072388;28;45318;-48
2022/10/14 05:27:53;;;;;;;;;4.25;4.25;;;;;21.74;54.43;100481.63;5065860;28;69454;-47
2022/10/14 05:30:19;;;;;;;;;4.50;4.50;;;;;21.75;53.93;100482.50;5062340;28;45304;-45
2022/10/14 05:32:44;;;;;;;;;5.00;5.00;;;;;21.73;54.53;100471.94;5066693;28;52059;-47
2022/10/14 05:35:10;;;;;;;;;5.75;4.00;;;;;21.75;54.23;100479.84;5061134;28;66242;-45
2022/10/14 05:37:35;;;;;;;;;4.75;4.00;;;;;21.76;53.98;100482.41;5074433;28;45552;-45
2022/10/14 05:40:00;;;;;;;;;7.00;5.00;;;;;21.76;54.33;100477.09;5063498;28;45327;-44
2022/10/14 05:42:26;;;;;;;;;3.75;3.75;;;;;21.76;54.07;100477.09;5062326;28;70594;-45
2022/10/14 05:44:51;;;;;;;;;4.00;4.00;;;;;21.77;54.19;100472.66;5063048;28;45326;-46
2022/10/14 05:47:17;;;;;;;;;5.50;5.50;;;;;21.77;54.35;100477.97;5067994;27;56703;-48
2022/10/14 05:49:42;;;;;;;;;5.00;5.00;;;;;21.77;54.08;100476.19;5076672;28;45291;-50
2022/10/14 05:52:07;;;;;;;;;7.00;4.50;;;;;21.79;54.19;100476.09;5069243;28;60367;-46
2022/10/14 05:54:33;;;;;;;;;5.25;5.00;;;;;21.79;53.94;100473.44;5071830;28;45498;-53
2022/10/14 05:56:58;;;;;;;;;6.25;4.00;;;;;21.80;54.21;100485.81;5079641;28;45387;-46
2022/10/14 05:59:24;;;;;;;;;5.00;5.00;;;;;21.79;53.88;100481.41;5075431;28;63627;-47
2022/10/14 06:01:49;;;;;;;;;7.00;5.25;;;;;21.79;53.91;100481.41;5071326;28;45517;-45
2022/10/14 06:04:19;;;;;;;;;5.00;5.00;;;;;21.77;54.19;100484.16;5062687;28;46386;-45
2022/10/14 06:06:44;;;;;;;;;8.00;6.25;;;;;21.80;53.65;100480.50;5061691;28;45295;-46
2022/10/14 06:09:10;;;;;;;;;5.25;5.25;;;;;21.80;53.70;100484.00;5080495;28;45513;-49
2022/10/14 06:11:35;;;;;;;;;5.75;5.00;;;;;21.81;55.00;100488.44;5078281;28;45541;-46
2022/10/14 06:14:01;;;;;;;;;8.00;7.00;;;;;21.74;54.54;100484.28;5076941;27;69025;-43
2022/10/14 06:16:26;;;;;;;;;7.50;5.50;;;;;21.70;55.05;100477.34;5072492;28;45357;-47
2022/10/14 06:18:51;;;;;;;;;4.75;4.50;;;;;21.67;54.69;100488.97;5060712;28;67530;-45
2022/10/14 06:21:17;;;;;;;;;6.75;5.25;;;;;21.66;55.57;100481.06;5044005;28;55537;-46
2022/10/14 06:23:42;;;;;;;;;5.25;4.00;;;;;21.61;55.27;100485.69;5066696;28;57205;-46
2022/10/14 06:26:08;;;;;;;;;4.75;4.75;;;;;21.55;55.68;100484.16;5068470;28;45316;-48
2022/10/14 06:28:34;;;;;;;;;7.25;6.00;;;;;21.51;56.05;100481.69;5081914;28;45184;-47
2022/10/14 06:30:59;;;;;;;;;8.00;4.50;;;;;21.48;55.99;100487.13;5079970;28;45429;-49
2022/10/14 06:33:27;;;;;;;;;6.25;5.25;;;;;21.46;56.26;100492.50;5078417;28;61463;-45
2022/10/14 06:35:52;;;;;;;;;8.25;5.00;;;;;21.42;55.86;100486.44;5061280;28;45369;-48
2022/10/14 06:38:17;;;;;;;;;6.00;6.00;;;;;21.38;56.51;100492.81;5073388;28;49773;-47
2022/10/14 06:40:43;;;;;;;;;6.25;4.75;;;;;21.36;56.41;100483.16;5067466;28;45470;-51
2022/10/14 06:43:08;;;;;;;;;7.25;6.25;;;;;21.34;56.60;100488.53;5079422;28;48110;-50
2022/10/14 06:45:34;;;;;;;;;4.00;4.00;;;;;21.33;56.33;100488.59;5075257;28;45382;-46
2022/10/14 06:47:59;;;;;;;;;6.00;5.00;;;;;21.30;56.60;100483.41;5080500;28;53957;-46
2022/10/14 06:50:24;;;;;;;;;9.25;6.25;;;;;21.28;56.82;100480.78;5080514;28;45798;-49
2022/10/14 06:52:50;;;;;;;;;6.00;6.00;;;;;21.30;57.04;100494.03;5078922;28;72607;-48
2022/10/14 06:55:15;;;;;;;;;6.00;5.00;;;;;21.33;56.79;100496.56;5080476;28;67121;-50
2022/10/14 06:57:41;;;;;;;;;9.50;6.00;;;;;21.38;56.75;100492.81;5080241;28;45284;-52
2022/10/14 07:00:07;;;;;;;;;5.25;4.00;;;;;21.47;57.00;100502.19;5068227;28;45184;-50
2022/10/14 07:02:32;;;;;;;;;6.75;4.50;;;;;21.53;57.09;100498.41;5080686;27;45522;-51
2022/10/14 07:04:58;;;;;;;;;5.50;4.00;;;;;21.58;56.42;100505.28;5080429;28;57424;-53
2022/10/14 07:07:23;;;;;;;;;3.00;2.00;;;;;21.63;56.36;100507.72;5080037;28;45753;-49
2022/10/14 07:09:49;;;;;;;;;7.00;5.25;;;;;21.68;56.53;100505.78;5078653;28;45544;-51
2022/10/14 07:12:14;;;;;;;;;5.00;4.25;;;;;21.71;56.31;100516.25;5062465;28;46661;-53
2022/10/14 07:14:39;;;;;;;;;6.50;5.50;;;;;21.73;55.84;100515.31;5072983;28;45804;-56
2022/10/14 07:17:07;;;;;;;;;5.25;4.50;;;;;21.77;55.76;100520.47;5019450;28;1153421;-53
2022/10/14 07:19:32;;;;;;;;;4.50;4.50;;;;;21.81;55.90;100516.78;5061678;28;45453;-53
2022/10/14 07:21:58;;;;;;;;;5.50;4.00;;;;;21.83;55.86;100526.41;5070217;28;46546;-53
2022/10/14 07:24:23;;;;;;;;;5.50;4.75;;;;;21.85;55.62;100524.56;5064162;28;45355;-54
2022/10/14 07:26:48;;;;;;;;;4.50;4.25;;;;;21.88;55.23;100528.88;5060534;28;45749;-54
2022/10/14 07:29:14;;;;;;;;;5.50;5.00;;;;;21.89;54.98;100526.16;5068678;28;45363;-57
2022/10/14 07:31:39;;;;;;;;;4.25;3.50;;;;;21.90;55.23;100533.22;5062343;28;67520;-56
2022/10/14 07:34:04;;;;;;;;;3.75;3.00;;;;;21.91;55.22;100532.28;5079041;28;66766;-55
2022/10/14 07:36:30;;;;;;;;;3.00;3.00;;;;;21.93;55.04;100527.75;5063885;28;45216;-55
2022/10/14 07:38:55;;;;;;;;;2.75;2.75;;;;;21.89;54.54;100534.16;5072589;28;55764;-53
2022/10/14 07:41:22;;;;;;;;;4.00;3.00;;;;;21.72;55.26;100549.91;5080757;27;70157;-53
2022/10/14 07:44:04;;;;;;;;;3.25;2.25;;;;;21.49;55.10;100548.13;5063763;28;45241;-53
2022/10/14 07:46:31;;;;;;;;;3.00;3.00;;;;;21.28;55.87;100549.81;5077639;28;45313;-54
2022/10/14 07:48:58;;;;;;;;;1.75;1.75;;;;;21.10;55.86;100555.78;5065540;28;45481;-54
2022/10/14 07:51:25;;;;;;;;;2.25;1.75;;;;;20.81;56.56;100548.88;5064688;28;45326;-57
2022/10/14 07:53:51;;;;;;;;;2.00;2.00;;;;;20.69;57.25;100542.25;5061151;28;45365;-57
2022/10/14 07:56:17;;;;;;;;;3.25;3.00;;;;;20.70;57.41;100559.03;5065089;28;45416;-56
2022/10/14 07:58:42;;;;;;;;;5.00;3.25;;;;;20.73;57.63;100551.81;5061060;28;45395;-57
2022/10/14 08:01:08;;;;;;;;;3.75;3.25;;;;;20.77;57.43;100556.09;5060089;28;46595;-56
2022/10/14 08:03:33;;;;;;;;;2.75;2.75;;;;;20.80;57.50;100558.63;5072998;28;60065;-57
2022/10/14 08:06:00;;;;;;;;;2.00;2.00;;;;;20.83;57.80;100558.50;5078263;28;45304;-57
2022/10/14 08:08:27;;;;;;;;;2.75;2.00;;;;;20.86;57.37;100558.44;5081332;27;45425;-57
2022/10/14 08:10:59;;;;;;;;;2.00;2.00;;;;;20.88;57.33;100564.53;5066854;28;46089;-57
2022/10/14 08:13:24;;;;;;;;;3.25;2.25;;;;;20.89;57.58;100566.25;5060486;28;45523;-57
2022/10/14 08:15:50;;;;;;;;;2.75;2.75;;;;;20.91;57.39;100571.50;5063155;28;45444;-57
2022/10/14 08:18:15;;;;;;;;;3.00;1.50;;;;;20.93;57.41;100571.44;5059554;28;69866;-56
2022/10/14 08:20:40;;;;;;;;;4.00;3.00;;;;;20.96;57.47;100576.66;5065028;28;71261;-57
2022/10/14 08:23:06;;;;;;;;;4.00;3.00;;;;;20.96;57.50;100574.00;5077408;28;69775;-57
2022/10/14 08:25:38;;;;;;;;;5.00;4.00;;;;;20.95;57.65;100567.84;5079830;28;45422;-57
2022/10/14 08:28:03;;;;;;;;;2.50;2.25;;;;;20.96;57.44;100563.41;5079963;28;45607;-57
2022/10/14 08:30:29;;;;;;;;;3.25;2.25;;;;;20.96;57.72;100574.00;5079877;28;63523;-57
2022/10/14 08:32:54;;;;;;;;;2.00;2.00;;;;;20.96;57.55;100571.34;5061539;28;61976;-57
2022/10/14 08:35:20;;;;;;;;;4.25;3.00;;;;;20.95;57.80;100574.94;5079236;28;57731;-57
2022/10/14 08:37:54;;;;;;;;;2.00;2.00;;;;;20.95;57.64;100575.78;5080749;28;45531;-57
2022/10/14 08:40:20;;;;;;;;;4.00;2.75;;;;;20.95;57.87;100572.28;5079281;28;47151;-57
2022/10/14 08:42:59;;;;;;;;;3.50;3.50;;;;;20.94;57.56;100568.75;5078730;28;62931;-57
2022/10/14 08:45:33;;;;;;;;;2.00;2.00;;;;;20.94;57.48;100570.53;5081165;28;45562;-56
2022/10/14 08:47:58;;;;;;;;;0.75;0.75;;;;;20.94;57.74;100567.88;5042608;28;45282;-57
2022/10/14 08:50:33;;;;;;;;;3.75;2.25;;;;;20.93;57.73;100569.66;5049644;28;45335;-57
2022/10/14 08:53:14;;;;;;;;;2.75;2.25;;;;;20.94;58.00;100567.88;5049959;28;45320;-57
2022/10/14 08:55:47;;;;;;;;;1.75;1.25;;;;;20.93;57.85;100568.78;5064254;28;45471;-57
2022/10/14 08:58:37;;;;;;;;;3.00;2.75;;;;;20.93;57.89;100569.66;5079361;28;45334;-56
2022/10/14 09:01:09;;;;;;;;;2.00;2.00;;;;;20.92;57.42;100564.41;5062790;28;45385;-57
2022/10/14 09:03:35;;;;;;;;;3.00;3.00;;;;;20.91;57.63;100560.91;5044778;28;46201;-56
2022/10/14 09:06:25;;;;;;;;;4.00;2.00;;;;;20.91;57.76;100568.84;5060402;28;45298;-57
2022/10/14 09:08:53;;;;;;;;;3.00;3.00;;;;;20.92;57.95;100573.22;5060664;28;45388;-56
2022/10/14 09:11:19;;;;;;;;;2.50;2.50;;;;;20.91;57.75;100568.84;5067212;28;45378;-56
2022/10/14 09:13:49;;;;;;;;;4.25;2.00;;;;;20.91;57.90;100558.25;5059954;28;45784;-57
2022/10/14 09:16:19;;;;;;;;;1.25;1.25;;;;;20.91;57.73;100560.03;5071016;28;45314;-56
2022/10/14 09:18:48;;;;;;;;;2.75;2.75;;;;;20.91;57.64;100549.41;5060645;28;45548;-57
2022/10/14 09:21:26;;;;;;;;;2.25;2.00;;;;;20.90;57.88;100548.56;5038304;28;48035;-56
2022/10/14 09:23:56;;;;;;;;;4.00;3.00;;;;;20.90;58.12;100548.56;5062443;28;45318;-56
2022/10/14 09:26:21;;;;;;;;;4.00;2.50;;;;;20.89;57.84;100545.03;5061655;28;45319;-57
2022/10/14 09:28:49;;;;;;;;;2.00;2.00;;;;;20.88;57.99;100545.97;5058050;28;65092;-56
2022/10/14 09:31:14;;;;;;;;;4.75;2.00;;;;;20.87;57.97;100544.25;5059252;28;46168;-56
2022/10/14 09:33:40;;;;;;;;;2.00;2.00;;;;;20.87;57.57;100549.53;5060022;28;45216;-55
2022/10/14 09:36:11;;;;;;;;;1.00;1.00;;;;;20.87;58.39;100546.88;5059885;28;45546;-56
2022/10/14 09:38:37;;;;;;;;;2.25;1.75;;;;;20.86;57.77;100558.44;5046981;28;45300;-57
2022/10/14 09:41:02;;;;;;;;;2.75;2.00;;;;;20.85;58.08;100554.03;5041819;28;45257;-55
2022/10/14 09:43:28;;;;;;;;;2.00;2.00;;;;;20.85;57.96;100542.56;5065394;28;61725;-56
2022/10/14 09:46:06;;;;;;;;;2.00;1.00;;;;;20.85;58.18;100538.13;5061233;28;45185;-56
2022/10/14 09:48:37;;;;;;;;;4.75;4.00;;;;;20.84;57.98;100531.06;5059799;28;45355;-56
2022/10/14 09:51:06;;;;;;;;;5.00;2.00;;;;;20.85;58.55;100538.13;5059311;28;47206;-56
2022/10/14 09:53:32;;;;;;;;;3.25;3.25;;;;;20.85;58.29;100545.22;5051983;28;45586;-56
2022/10/14 09:55:59;;;;;;;;;2.25;2.00;;;;;20.85;58.26;100538.13;5080012;28;45330;-55
2022/10/14 09:58:34;;;;;;;;;1.00;1.00;;;;;20.88;58.30;100542.44;5078533;28;45429;-57
2022/10/14 10:00:59;;;;;;;;;2.25;2.25;;;;;20.87;57.86;100541.59;5076561;28;46150;-57
2022/10/14 10:03:31;;;;;;;;;2.00;2.00;;;;;20.87;58.00;100538.94;5058096;28;45384;-57
2022/10/14 10:06:02;;;;;;;;;2.50;2.50;;;;;20.87;58.35;100532.75;5041709;28;45308;-57
2022/10/14 10:08:27;;;;;;;;;2.00;2.00;;;;;20.85;58.18;100537.25;5073013;28;45497;-57
2022/10/14 10:10:59;;;;;;;;;3.00;2.75;;;;;20.87;58.57;100533.63;5074017;28;68989;-56
2022/10/14 10:13:45;;;;;;;;;2.75;2.00;;;;;20.87;58.54;100532.75;5080750;28;45369;-56
2022/10/14 10:16:24;;;;;;;;;3.00;3.00;;;;;20.87;58.46;100543.38;5068412;28;45323;-56
2022/10/14 10:18:50;;;;;;;;;2.75;2.00;;;;;20.85;58.29;100543.44;5062911;28;45370;-56
2022/10/14 10:21:18;;;;;;;;;4.75;3.00;;;;;20.86;58.70;100531.03;5064759;28;46410;-57
2022/10/14 10:23:58;;;;;;;;;2.75;2.25;;;;;20.86;58.34;100528.38;5065754;28;45463;-57
2022/10/14 10:26:32;;;;;;;;;4.00;2.50;;;;;20.87;58.10;100535.41;5080026;28;45469;-57
2022/10/14 10:28:59;;;;;;;;;2.75;2.75;;;;;20.86;58.33;100528.38;5083033;27;45236;-57
2022/10/14 10:31:39;;;;;;;;;3.00;3.00;;;;;20.86;58.25;100520.41;5079150;28;46251;-57
2022/10/14 10:34:10;;;;;;;;;3.00;3.00;;;;;20.87;58.55;100523.00;5082840;28;45440;-56
2022/10/14 10:36:47;;;;;;;;;2.25;2.25;;;;;20.86;58.45;100510.69;5081645;28;45292;-56
2022/10/14 10:39:34;;;;;;;;;3.00;3.00;;;;;20.88;58.31;100515.91;5062845;28;45497;-57
2022/10/14 10:42:19;;;;;;;;;3.00;3.00;;;;;20.91;58.48;100522.88;5068471;28;45481;-56
2022/10/14 10:45:36;;;;;;;;;3.75;3.00;;;;;20.92;58.50;100519.31;5061401;28;45419;-57
2022/10/14 10:48:26;;;;;;;;;2.00;2.00;;;;;20.93;58.35;100510.44;5040702;28;45457;-57
2022/10/14 10:50:58;;;;;;;;;4.00;3.00;;;;;20.94;58.39;100506.84;5062227;28;45340;-56
2022/10/14 10:53:39;;;;;;;;;3.00;2.00;;;;;20.94;58.46;100510.41;5057835;28;46372;-56
2022/10/14 10:56:26;;;;;;;;;3.00;2.25;;;;;20.94;58.77;100493.59;5062280;28;45380;-56
2022/10/14 10:58:56;;;;;;;;;1.50;1.50;;;;;20.95;58.77;100477.63;5062363;28;45343;-56
2022/10/14 11:01:35;;;;;;;;;3.25;3.25;;;;;20.98;58.60;100471.34;5074091;28;45407;-55
2022/10/14 11:04:21;;;;;;;;;3.00;2.00;;;;;21.00;58.56;100475.66;5067281;28;46316;-56
2022/10/14 11:13:14;;;;;;;;;2.00;2.00;;;;;20.99;58.83;100473.06;5072992;28;45240;-57
2022/10/14 11:15:57;;;;;;;;;2.25;2.25;;;;;21.00;58.83;100474.78;5061382;28;45335;-57
2022/10/14 11:18:25;;;;;;;;;3.75;2.25;;;;;21.01;58.63;100473.88;5061622;28;45457;-55
2022/10/14 11:21:04;;;;;;;;;3.25;3.25;;;;;21.02;58.49;100464.97;5062673;28;45468;-58
2022/10/14 11:23:47;;;;;;;;;3.25;2.00;;;;;21.03;58.74;100464.09;5056493;28;45457;-56
2022/10/14 11:26:45;;;;;;;;;2.00;2.00;;;;;21.04;58.54;100448.09;5075313;27;45526;-56
2022/10/14 11:29:38;;;;;;;;;4.00;3.00;;;;;21.04;58.75;100432.19;5064343;28;45393;-56
2022/10/14 11:32:12;;;;;;;;;2.00;2.00;;;;;21.04;58.67;100439.28;5079254;28;45268;-57
2022/10/14 11:34:44;;;;;;;;;4.00;3.00;;;;;21.04;58.59;100433.97;5061522;28;45157;-57
2022/10/14 11:37:32;;;;;;;;;2.75;2.25;;;;;21.02;58.80;100435.78;5062220;28;46266;-57
2022/10/14 11:40:06;;;;;;;;;2.50;2.50;;;;;21.04;58.94;100433.97;5058532;28;45366;-56